Time;durP1;ratioP1;P1;durP2;ratioP2;P2;SDS_P1;SDS_P2;PMS_P1;PMS_P2;Temp;Humidity;BMP_temperature;BMP_pressure;BME280_temperature;BME280_humidity;BME280_pressure;Samples;Min_cycle;Max_cycle;Signal;HPM_P1;HPM_P2
2022/02/15 00:02:21;0.00;0.00;0.62;0.00;0.00;0.62;1.47;0.90;;;21.90;25.60;;;;;;2249110;61;20724;-62
2022/02/15 00:05:06;0.00;0.00;0.62;0.00;0.00;0.62;2.47;0.97;;;22.00;25.60;;;;;;2249244;61;20385;-61
2022/02/15 00:07:53;0.00;0.00;0.62;0.00;0.00;0.62;1.90;0.90;;;22.00;25.70;;;;;;2249381;61;20716;-61
2022/02/15 00:10:39;0.00;0.00;0.62;0.00;0.00;0.62;3.37;1.30;;;22.00;25.60;;;;;;2249717;61;20420;-61
2022/02/15 00:13:24;0.00;0.00;0.62;0.00;0.00;0.62;1.83;1.00;;;22.00;25.60;;;;;;2249712;61;20365;-61
2022/02/15 00:16:08;0.00;0.00;0.62;0.00;0.00;0.62;2.07;1.00;;;22.00;25.60;;;;;;2249557;61;20402;-61
2022/02/15 00:18:54;0.00;0.00;0.62;0.00;0.00;0.62;1.43;0.90;;;22.00;25.60;;;;;;2249775;61;20525;-61
2022/02/15 00:21:39;0.00;0.00;0.62;0.00;0.00;0.62;2.57;1.00;;;22.00;25.60;;;;;;2249533;61;20373;-62
2022/02/15 00:24:24;0.00;0.00;0.62;0.00;0.00;0.62;1.40;0.83;;;22.00;25.60;;;;;;2249620;61;20430;-61
2022/02/15 00:27:08;0.00;0.00;0.62;0.00;0.00;0.62;2.10;1.20;;;22.00;25.60;;;;;;2249859;61;20369;-63
2022/02/15 00:29:53;0.00;0.00;0.62;0.00;0.00;0.62;2.57;1.70;;;22.00;25.60;;;;;;2249619;61;20384;-62
2022/02/15 00:32:41;0.00;0.00;0.62;0.00;0.00;0.62;2.57;1.10;;;21.90;25.30;;;;;;2249185;61;20397;-63
2022/02/15 00:35:29;0.00;0.00;0.62;0.00;0.00;0.62;3.70;1.33;;;21.90;25.00;;;;;;2249295;61;20364;-63
2022/02/15 00:38:13;0.00;0.00;0.62;0.00;0.00;0.62;2.77;1.40;;;21.90;24.70;;;;;;2249252;61;20412;-62
2022/02/15 00:40:58;0.00;0.00;0.62;0.00;0.00;0.62;2.40;1.20;;;21.80;24.40;;;;;;2249327;61;20406;-63
2022/02/15 00:43:44;0.00;0.00;0.62;0.00;0.00;0.62;3.60;1.43;;;21.70;24.20;;;;;;2249548;61;20409;-61
2022/02/15 00:46:29;0.00;0.00;0.62;0.00;0.00;0.62;3.57;1.60;;;21.70;24.10;;;;;;2249049;61;20440;-64
2022/02/15 00:49:13;0.00;0.00;0.62;0.00;0.00;0.62;2.40;1.30;;;21.60;24.00;;;;;;2249385;61;20388;-63
2022/02/15 00:52:00;0.00;0.00;0.62;0.00;0.00;0.62;3.80;1.57;;;21.50;23.90;;;;;;2249293;61;20633;-63
2022/02/15 00:54:44;0.00;0.00;0.62;0.00;0.00;0.62;4.40;1.77;;;21.50;23.90;;;;;;2249642;61;20369;-63
2022/02/15 00:57:29;0.00;0.00;0.62;0.00;0.00;0.62;4.10;1.37;;;21.40;23.80;;;;;;2249380;61;20399;-63
2022/02/15 01:00:14;0.00;0.00;0.62;0.00;0.00;0.62;2.00;1.27;;;21.30;23.70;;;;;;2249060;61;20696;-62
2022/02/15 01:02:59;0.00;0.00;0.62;0.00;0.00;0.62;4.03;1.90;;;21.20;23.70;;;;;;2250110;61;20361;-62
2022/02/15 01:05:43;0.00;0.00;0.62;0.00;0.00;0.62;2.73;1.30;;;21.20;23.70;;;;;;2249622;61;20384;-64
2022/02/15 01:08:29;0.00;0.00;0.62;0.00;0.00;0.62;3.50;1.33;;;21.10;23.70;;;;;;2248978;61;20492;-63
2022/02/15 01:11:14;0.00;0.00;0.62;0.00;0.00;0.62;5.73;1.77;;;21.00;23.70;;;;;;2249744;61;20377;-62
2022/02/15 01:14:00;0.00;0.00;0.62;0.00;0.00;0.62;3.03;1.40;;;21.00;23.70;;;;;;2248754;61;20361;-61
2022/02/15 01:16:45;0.00;0.00;0.62;0.00;0.00;0.62;2.10;1.30;;;20.90;23.70;;;;;;2249580;61;20569;-63
2022/02/15 01:19:29;0.00;0.00;0.62;0.00;0.00;0.62;2.43;1.37;;;20.90;23.70;;;;;;2249690;61;20380;-63
2022/02/15 01:22:13;0.00;0.00;0.62;0.00;0.00;0.62;5.10;1.33;;;20.80;23.70;;;;;;2248891;61;20371;-63
2022/02/15 01:24:59;0.00;0.00;0.62;0.00;0.00;0.62;2.60;1.57;;;20.80;23.80;;;;;;2250022;61;20464;-64
2022/02/15 01:27:43;0.00;0.00;0.62;0.00;0.00;0.62;2.90;1.50;;;20.70;23.80;;;;;;2249512;61;20377;-63
2022/02/15 01:30:28;0.00;0.00;0.62;0.00;0.00;0.62;2.37;1.20;;;20.70;23.90;;;;;;2248887;61;20441;-62
2022/02/15 01:33:13;0.00;0.00;0.62;0.00;0.00;0.62;4.17;1.90;;;20.60;23.90;;;;;;2249729;61;20423;-63
2022/02/15 01:35:59;0.00;0.00;0.62;0.00;0.00;0.62;2.67;1.30;;;20.60;23.90;;;;;;2249334;61;20436;-62
2022/02/15 01:38:44;0.00;0.00;0.62;0.00;0.00;0.62;4.13;1.60;;;20.60;23.90;;;;;;2248975;61;20384;-63
2022/02/15 01:41:30;0.00;0.00;0.62;0.00;0.00;0.62;2.13;1.17;;;20.50;23.90;;;;;;2249182;61;20360;-62
2022/02/15 01:44:17;0.00;0.00;0.62;0.00;0.00;0.62;2.40;1.60;;;20.50;23.90;;;;;;2248926;61;20369;-63
2022/02/15 01:47:03;0.00;0.00;0.62;0.00;0.00;0.62;3.13;1.67;;;20.40;23.90;;;;;;2249402;61;20380;-61
2022/02/15 01:49:48;0.00;0.00;0.62;0.00;0.00;0.62;3.50;1.93;;;20.40;23.90;;;;;;2249138;61;20632;-61
2022/02/15 01:52:32;0.00;0.00;0.62;0.00;0.00;0.62;1.87;1.17;;;20.40;24.00;;;;;;2248756;61;20707;-61
2022/02/15 01:55:18;0.00;0.00;0.62;0.00;0.00;0.62;3.20;1.57;;;20.30;24.00;;;;;;2249317;61;20713;-63
2022/02/15 01:58:05;0.00;0.00;0.62;0.00;0.00;0.62;1.80;1.20;;;20.30;24.00;;;;;;2248738;61;20360;-62
2022/02/15 02:00:52;0.00;0.00;0.62;0.00;0.00;0.62;2.60;1.70;;;20.30;24.10;;;;;;2249016;61;20443;-63
2022/02/15 02:03:55;0.00;0.00;0.62;0.00;0.00;0.62;2.60;1.63;;;20.30;24.20;;;;;;2249304;61;20365;-61
2022/02/15 02:06:43;0.00;0.00;0.62;0.00;0.00;0.62;2.43;1.40;;;20.30;24.20;;;;;;2248929;61;20352;-61
2022/02/15 02:09:27;0.00;0.00;0.62;0.00;0.00;0.62;5.10;1.60;;;20.30;24.30;;;;;;2249329;61;20713;-63
2022/02/15 02:12:12;0.00;0.00;0.62;0.00;0.00;0.62;2.77;1.43;;;20.30;24.30;;;;;;2249058;61;20368;-61
2022/02/15 02:15:14;0.00;0.00;0.62;0.00;0.00;0.62;4.43;1.90;;;20.30;24.30;;;;;;2248927;61;20363;-63
2022/02/15 02:18:18;0.00;0.00;0.62;0.00;0.00;0.62;2.70;1.50;;;20.20;24.30;;;;;;2249540;61;20388;-61
2022/02/15 02:21:06;0.00;0.00;0.62;0.00;0.00;0.62;4.70;2.00;;;20.20;24.30;;;;;;2248793;61;20762;-60
2022/02/15 02:23:51;0.00;0.00;0.62;0.00;0.00;0.62;6.40;1.50;;;20.20;24.30;;;;;;2248988;61;20372;-63
2022/02/15 02:26:47;0.00;0.00;0.62;0.00;0.00;0.62;3.03;1.77;;;20.20;24.30;;;;;;2248924;61;20645;-63
2022/02/15 02:29:32;0.00;0.00;0.62;0.00;0.00;0.62;4.57;1.57;;;20.20;24.30;;;;;;2244885;61;20413;-62
2022/02/15 02:32:18;0.00;0.00;0.62;0.00;0.00;0.62;3.57;1.50;;;20.20;24.80;;;;;;2245003;61;20754;-62
2022/02/15 02:35:05;0.00;0.00;0.62;0.00;0.00;0.62;4.20;1.87;;;20.20;24.40;;;;;;2244667;61;20377;-61
2022/02/15 02:37:50;0.00;0.00;0.62;0.00;0.00;0.62;3.40;1.60;;;20.10;24.30;;;;;;2244839;61;20381;-62
2022/02/15 02:40:35;0.00;0.00;0.62;0.00;0.00;0.62;2.43;1.83;;;20.10;24.30;;;;;;2245195;61;20373;-62
2022/02/15 02:43:25;0.00;0.00;0.62;0.00;0.00;0.62;5.20;1.80;;;20.10;24.40;;;;;;2244854;61;20599;-63
2022/02/15 02:46:11;0.00;0.00;0.62;0.00;0.00;0.62;4.20;1.93;;;20.10;24.40;;;;;;2245228;61;20467;-63
2022/02/15 02:48:55;0.00;0.00;0.62;0.00;0.00;0.62;3.93;1.67;;;20.10;24.40;;;;;;2244817;61;20776;-62
2022/02/15 02:51:41;0.00;0.00;0.62;0.00;0.00;0.62;4.10;1.63;;;20.10;24.40;;;;;;2247178;61;20369;-63
2022/02/15 02:54:27;0.00;0.00;0.62;0.00;0.00;0.62;3.43;1.77;;;20.10;24.50;;;;;;2245167;61;20377;-63
2022/02/15 02:57:16;0.00;0.00;0.62;0.00;0.00;0.62;4.10;1.90;;;20.10;24.50;;;;;;2244696;61;20371;-63
2022/02/15 03:00:03;0.00;0.00;0.62;0.00;0.00;0.62;5.27;2.33;;;20.10;24.50;;;;;;2244795;61;20404;-63
2022/02/15 03:03:09;0.00;0.00;0.62;0.00;0.00;0.62;4.07;1.80;;;20.00;24.40;;;;;;2247935;61;20644;-62
2022/02/15 03:05:57;0.00;0.00;0.62;0.00;0.00;0.62;2.27;1.70;;;20.00;24.50;;;;;;2244732;61;20398;-62
2022/02/15 03:08:42;0.00;0.00;0.62;0.00;0.00;0.62;2.60;1.80;;;20.00;24.50;;;;;;2245210;61;20569;-63
2022/02/15 03:11:28;0.00;0.00;0.62;0.00;0.00;0.62;3.30;1.87;;;20.00;24.50;;;;;;2245298;61;20366;-63
2022/02/15 03:14:13;0.00;0.00;0.62;0.00;0.00;0.62;3.40;2.00;;;20.00;24.50;;;;;;2244689;61;20592;-62
2022/02/15 03:17:06;0.00;0.00;0.62;0.00;0.00;0.62;3.50;2.27;;;20.00;24.50;;;;;;2244887;61;20361;-63
2022/02/15 03:19:51;0.00;0.00;0.62;0.00;0.00;0.62;3.93;2.20;;;20.00;24.60;;;;;;2241905;61;20384;-62
2022/02/15 03:22:37;0.00;0.00;0.62;0.00;0.00;0.62;2.70;2.07;;;20.00;24.60;;;;;;2244988;61;20365;-62
2022/02/15 03:25:22;0.00;0.00;0.62;0.00;0.00;0.62;2.30;2.10;;;20.00;24.50;;;;;;2244966;61;20405;-63
2022/02/15 03:28:09;0.00;0.00;0.62;0.00;0.00;0.62;3.50;2.00;;;20.00;24.60;;;;;;2244619;61;20753;-62
2022/02/15 03:30:55;0.00;0.00;0.62;0.00;0.00;0.62;2.63;1.77;;;20.00;24.60;;;;;;2245168;61;20716;-63
2022/02/15 03:33:42;0.00;0.00;0.62;0.00;0.00;0.62;3.00;1.97;;;19.90;24.50;;;;;;2244921;61;20410;-63
2022/02/15 03:36:28;0.00;0.00;0.62;0.00;0.00;0.62;3.40;1.93;;;20.00;24.60;;;;;;2244836;61;20409;-63
2022/02/15 03:39:18;0.00;0.00;0.62;0.00;0.00;0.62;4.23;1.57;;;19.90;24.60;;;;;;2244928;61;20425;-63
2022/02/15 03:45:12;0.00;0.00;0.62;0.00;0.00;0.62;8.17;2.30;;;19.90;24.50;;;;;;2248343;61;20384;-63
2022/02/15 03:48:09;0.00;0.00;0.62;0.00;0.00;0.62;3.90;2.00;;;19.90;24.60;;;;;;2245276;61;20385;-62
2022/02/15 03:50:55;0.00;0.00;0.62;0.00;0.00;0.62;4.47;2.40;;;19.90;24.60;;;;;;2245150;61;20361;-63
2022/02/15 03:53:40;0.00;0.00;0.62;0.00;0.00;0.62;3.10;2.17;;;19.90;24.60;;;;;;2245687;61;20413;-63
2022/02/15 03:56:26;0.00;0.00;0.62;0.00;0.00;0.62;3.10;1.63;;;19.90;24.60;;;;;;2245877;61;20685;-63
2022/02/15 03:59:11;0.00;0.00;0.62;0.00;0.00;0.62;2.60;2.10;;;19.90;24.60;;;;;;2245384;61;20596;-63
2022/02/15 04:01:58;0.00;0.00;0.62;0.00;0.00;0.62;3.07;1.50;;;19.90;24.70;;;;;;2279383;58;20404;-63
2022/02/15 04:04:44;0.00;0.00;0.62;0.00;0.00;0.62;2.00;1.50;;;19.90;24.70;;;;;;2249288;61;20365;-63
2022/02/15 04:07:28;0.00;0.00;0.62;0.00;0.00;0.62;3.30;2.00;;;19.90;24.70;;;;;;2249273;61;20452;-63
2022/02/15 04:09:55;0.00;0.00;0.62;0.00;0.00;0.62;2.17;1.77;;;19.90;24.70;;;;;;2249551;61;20369;-62
2022/02/15 04:12:21;0.00;0.00;0.62;0.00;0.00;0.62;2.50;1.93;;;19.90;24.70;;;;;;2249192;61;20554;-63
2022/02/15 04:14:47;0.00;0.00;0.62;0.00;0.00;0.62;3.07;1.70;;;19.90;24.70;;;;;;2249272;61;20346;-63
2022/02/15 04:17:15;0.00;0.00;0.62;0.00;0.00;0.62;5.87;2.20;;;20.00;24.70;;;;;;2249416;61;20400;-63
2022/02/15 04:19:41;0.00;0.00;0.62;0.00;0.00;0.62;3.53;2.07;;;20.00;24.70;;;;;;2249590;61;20649;-63
2022/02/15 04:22:08;0.00;0.00;0.62;0.00;0.00;0.62;2.33;1.70;;;20.00;24.70;;;;;;2249313;61;20350;-63
2022/02/15 04:24:36;0.00;0.00;0.62;0.00;0.00;0.62;2.43;1.90;;;20.00;24.70;;;;;;2249533;61;20349;-63
2022/02/15 04:27:22;0.00;0.00;0.62;0.00;0.00;0.62;2.07;1.80;;;20.00;24.70;;;;;;2249210;61;20396;-62
2022/02/15 04:30:09;0.00;0.00;0.62;0.00;0.00;0.62;2.00;1.73;;;20.00;24.70;;;;;;2249639;61;20424;-63
2022/02/15 04:32:57;0.00;0.00;0.62;0.00;0.00;0.62;2.73;2.50;;;20.00;24.70;;;;;;2249461;61;20392;-63
2022/02/15 04:35:42;0.00;0.00;0.62;0.00;0.00;0.62;2.30;1.80;;;20.00;24.70;;;;;;2249227;61;20368;-62
2022/02/15 04:38:28;0.00;0.00;0.62;0.00;0.00;0.62;3.43;1.80;;;20.00;24.80;;;;;;2249358;61;20388;-63
2022/02/15 04:41:14;0.00;0.00;0.62;0.00;0.00;0.62;2.50;1.90;;;20.00;24.70;;;;;;2249088;61;20396;-63
2022/02/15 04:44:00;0.00;0.00;0.62;0.00;0.00;0.62;3.00;1.90;;;20.00;24.70;;;;;;2249258;61;20412;-63
2022/02/15 04:46:46;0.00;0.00;0.62;0.00;0.00;0.62;3.40;1.63;;;20.00;24.70;;;;;;2249451;61;20401;-63
2022/02/15 04:49:35;0.00;0.00;0.62;0.00;0.00;0.62;2.30;1.70;;;20.00;24.70;;;;;;2249123;61;20489;-61
2022/02/15 04:52:24;0.00;0.00;0.62;0.00;0.00;0.62;2.73;1.87;;;20.00;24.70;;;;;;2250100;61;20384;-63
2022/02/15 04:55:09;0.00;0.00;0.62;0.00;0.00;0.62;2.77;1.80;;;20.00;24.80;;;;;;2249170;61;20364;-63
2022/02/15 04:57:54;0.00;0.00;0.62;0.00;0.00;0.62;1.97;1.63;;;20.00;24.80;;;;;;2249122;61;20725;-63
2022/02/15 05:00:41;0.00;0.00;0.62;0.00;0.00;0.62;3.10;1.70;;;20.00;24.80;;;;;;2249944;61;20400;-62
2022/02/15 05:03:34;0.00;0.00;0.62;0.00;0.00;0.62;2.07;1.60;;;20.00;24.80;;;;;;2248873;61;20384;-63
2022/02/15 05:06:21;0.00;0.00;0.62;0.00;0.00;0.62;2.60;1.83;;;20.00;24.80;;;;;;2249342;61;20412;-63
2022/02/15 05:09:06;0.00;0.00;0.62;0.00;0.00;0.62;2.80;2.10;;;20.10;24.80;;;;;;2249421;61;20389;-63
2022/02/15 05:11:52;0.00;0.00;0.62;0.00;0.00;0.62;2.50;1.80;;;20.00;24.80;;;;;;2248677;61;20345;-61
2022/02/15 05:14:40;0.00;0.00;0.62;0.00;0.00;0.62;4.20;2.50;;;20.10;24.90;;;;;;2249591;61;20404;-61
2022/02/15 05:17:27;0.00;0.00;0.62;0.00;0.00;0.62;4.50;1.90;;;20.10;24.80;;;;;;2249014;61;20420;-61
2022/02/15 05:20:16;0.00;0.00;0.62;0.00;0.00;0.62;1.73;1.63;;;20.00;24.80;;;;;;2248967;61;20764;-61
2022/02/15 05:23:02;0.00;0.00;0.62;0.00;0.00;0.62;3.00;1.87;;;20.10;24.90;;;;;;2618688;46;20362;-61
2022/02/15 05:25:52;0.00;0.00;0.62;0.00;0.00;0.62;3.63;3.00;;;20.10;24.90;;;;;;2240824;62;20802;-61
2022/02/15 05:28:49;0.00;0.00;0.62;0.00;0.00;0.62;2.73;2.30;;;20.00;24.70;;;;;;2241316;62;20386;-61
2022/02/15 05:31:35;0.00;0.00;0.62;0.00;0.00;0.62;2.17;1.90;;;20.00;24.80;;;;;;2240908;61;20583;-60
2022/02/15 05:34:21;0.00;0.00;0.62;0.00;0.00;0.62;3.10;1.80;;;20.00;24.80;;;;;;2286812;58;20551;-60
2022/02/15 05:37:07;0.00;0.00;0.62;0.00;0.00;0.62;4.30;3.23;;;20.00;24.80;;;;;;2245183;61;20392;-61
2022/02/15 05:39:58;0.00;0.00;0.62;0.00;0.00;0.62;4.03;3.37;;;20.00;24.80;;;;;;2244812;61;20417;-61
2022/02/15 05:43:12;0.00;0.00;0.62;0.00;0.00;0.62;6.40;3.20;;;20.00;24.80;;;;;;2245559;61;20382;-61
2022/02/15 05:45:58;0.00;0.00;0.62;0.00;0.00;0.62;7.47;2.63;;;20.00;24.70;;;;;;2245186;61;20464;-61
2022/02/15 05:48:50;0.00;0.00;0.62;0.00;0.00;0.62;3.60;2.70;;;20.00;24.70;;;;;;2244737;61;20757;-60
2022/02/15 05:52:13;0.00;0.00;0.62;0.00;0.00;0.62;3.20;2.83;;;20.00;24.70;;;;;;2245062;61;20729;-61
2022/02/15 05:55:00;0.00;0.00;0.62;0.00;0.00;0.62;3.90;3.10;;;20.00;24.70;;;;;;2244801;61;20685;-62
2022/02/15 05:57:45;0.00;0.00;0.62;0.00;0.00;0.62;4.20;3.80;;;19.90;24.70;;;;;;2245123;61;20445;-64
2022/02/15 06:00:33;0.00;0.00;0.62;0.00;0.00;0.62;3.63;3.20;;;19.90;24.70;;;;;;2247926;61;20438;-61
2022/02/15 06:06:21;0.00;0.00;0.62;0.00;0.00;0.62;3.43;2.83;;;19.90;24.70;;;;;;2248292;61;20384;-60
2022/02/15 06:09:07;0.00;0.00;0.62;0.00;0.00;0.62;4.40;3.00;;;19.80;24.70;;;;;;2245061;61;20432;-60
2022/02/15 06:11:52;0.00;0.00;0.62;0.00;0.00;0.62;3.83;2.13;;;19.80;24.70;;;;;;2245048;61;20798;-60
2022/02/15 06:14:42;0.00;0.00;0.62;0.00;0.00;0.62;3.10;2.30;;;19.80;24.70;;;;;;2245180;61;20370;-60
2022/02/15 06:17:31;0.00;0.00;0.62;0.00;0.00;0.62;4.60;3.00;;;19.80;24.80;;;;;;2244900;61;20433;-61
2022/02/15 06:20:16;0.00;0.00;0.62;0.00;0.00;0.62;3.53;2.27;;;19.90;24.80;;;;;;2245072;61;20413;-61
2022/02/15 06:23:03;0.00;0.00;0.62;0.00;0.00;0.62;4.10;2.10;;;19.80;24.80;;;;;;2248595;61;20372;-62
2022/02/15 06:25:48;0.00;0.00;0.62;0.00;0.00;0.62;2.27;2.00;;;19.80;24.80;;;;;;2248920;61;20408;-62
2022/02/15 06:28:35;0.00;0.00;0.62;0.00;0.00;0.62;3.90;2.33;;;19.90;24.80;;;;;;2249259;61;20472;-62
2022/02/15 06:31:33;0.00;0.00;0.62;0.00;0.00;0.62;2.73;2.00;;;19.90;24.80;;;;;;2248793;61;20372;-61
2022/02/15 06:34:18;0.00;0.00;0.62;0.00;0.00;0.62;3.67;2.20;;;19.90;25.40;;;;;;2249432;61;20433;-62
2022/02/15 06:37:04;0.00;0.00;0.62;0.00;0.00;0.62;6.40;2.70;;;19.90;24.80;;;;;;2248905;61;20416;-61
2022/02/15 06:39:56;0.00;0.00;0.62;0.00;0.00;0.62;3.20;2.80;;;19.90;24.80;;;;;;2248938;61;20411;-61
2022/02/15 06:42:47;0.00;0.00;0.62;0.00;0.00;0.62;2.70;2.07;;;19.90;24.80;;;;;;2249019;61;20380;-61
2022/02/15 06:45:34;0.00;0.00;0.62;0.00;0.00;0.62;3.53;2.57;;;19.90;24.80;;;;;;2248886;61;20454;-61
2022/02/15 06:48:20;0.00;0.00;0.62;0.00;0.00;0.62;3.90;2.10;;;19.90;24.80;;;;;;2248660;61;20388;-61
2022/02/15 06:51:04;0.00;0.00;0.62;0.00;0.00;0.62;2.73;1.90;;;19.90;24.80;;;;;;2248872;61;20380;-61
2022/02/15 06:54:11;0.00;0.00;0.62;0.00;0.00;0.62;3.10;2.40;;;19.90;24.80;;;;;;2248759;61;20412;-61
2022/02/15 06:57:12;0.00;0.00;0.62;0.00;0.00;0.62;3.57;2.70;;;19.90;24.80;;;;;;2248756;61;20364;-61
2022/02/15 06:59:56;0.00;0.00;0.62;0.00;0.00;0.62;2.87;2.33;;;19.90;24.70;;;;;;2249127;61;20431;-63
2022/02/15 07:02:42;0.00;0.00;0.62;0.00;0.00;0.62;3.07;2.23;;;19.90;24.70;;;;;;2249491;61;20364;-60
2022/02/15 07:05:29;0.00;0.00;0.62;0.00;0.00;0.62;3.00;2.37;;;19.90;24.70;;;;;;2249262;61;20381;-62
2022/02/15 07:08:14;0.00;0.00;0.62;0.00;0.00;0.62;3.20;2.07;;;19.90;24.70;;;;;;2248903;61;20695;-62
2022/02/15 07:10:58;0.00;0.00;0.62;0.00;0.00;0.62;3.43;2.13;;;19.80;24.70;;;;;;2248772;61;20360;-60
2022/02/15 07:13:46;0.00;0.00;0.62;0.00;0.00;0.62;3.00;2.10;;;19.90;24.80;;;;;;2249186;61;20368;-61
2022/02/15 07:16:31;0.00;0.00;0.62;0.00;0.00;0.62;2.90;2.00;;;19.90;24.70;;;;;;2248717;61;20613;-61
2022/02/15 07:19:20;0.00;0.00;0.62;0.00;0.00;0.62;3.23;1.93;;;19.90;24.70;;;;;;2249490;61;20388;-62
2022/02/15 07:22:25;0.00;0.00;0.62;0.00;0.00;0.62;3.90;2.60;;;19.90;24.70;;;;;;2249892;61;20760;-60
2022/02/15 07:25:27;0.00;0.00;0.62;0.00;0.00;0.62;2.77;2.20;;;19.90;24.70;;;;;;2249220;61;20695;-61
2022/02/15 07:28:35;0.00;0.00;0.62;0.00;0.00;0.62;2.93;1.90;;;19.90;24.70;;;;;;2250363;61;20435;-61
2022/02/15 07:31:20;0.00;0.00;0.62;0.00;0.00;0.62;3.70;2.17;;;19.90;24.70;;;;;;2249590;61;20368;-60
2022/02/15 07:34:10;0.00;0.00;0.62;0.00;0.00;0.62;2.73;2.00;;;19.90;24.70;;;;;;2249378;61;20408;-62
2022/02/15 07:36:57;0.00;0.00;0.62;0.00;0.00;0.62;3.30;1.90;;;19.90;24.70;;;;;;2249838;61;20578;-62
2022/02/15 07:39:42;0.00;0.00;0.62;0.00;0.00;0.62;2.37;1.83;;;19.90;24.70;;;;;;2249809;61;20381;-62
2022/02/15 07:42:27;0.00;0.00;0.62;0.00;0.00;0.62;2.37;2.17;;;19.90;24.70;;;;;;2250401;61;20364;-62
2022/02/15 07:45:17;0.00;0.00;0.62;0.00;0.00;0.62;3.20;2.27;;;19.90;24.70;;;;;;2249644;61;20795;-60
2022/02/15 07:48:03;0.00;0.00;0.62;0.00;0.00;0.62;3.20;2.13;;;19.90;24.70;;;;;;2249616;61;20372;-62
2022/02/15 07:50:48;0.00;0.00;0.62;0.00;0.00;0.62;2.60;2.20;;;19.90;24.70;;;;;;2250057;61;20419;-60
2022/02/15 07:53:34;0.00;0.00;0.62;0.00;0.00;0.62;2.57;1.93;;;19.90;24.70;;;;;;2249614;61;20372;-61
2022/02/15 07:56:18;0.00;0.00;0.62;0.00;0.00;0.62;3.33;2.40;;;19.90;24.60;;;;;;2249850;61;20360;-61
2022/02/15 07:59:05;0.00;0.00;0.62;0.00;0.00;0.62;2.73;2.13;;;19.90;24.60;;;;;;2250003;61;20604;-60
2022/02/15 08:01:49;0.00;0.00;0.62;0.00;0.00;0.62;3.60;1.80;;;19.90;25.10;;;;;;2249828;61;20591;-62
2022/02/15 08:04:35;0.00;0.00;0.62;0.00;0.00;0.62;3.00;2.17;;;19.90;24.60;;;;;;2249868;61;20411;-61
2022/02/15 08:07:19;0.00;0.00;0.62;0.00;0.00;0.62;2.60;2.20;;;19.90;24.60;;;;;;2249352;61;20416;-62
2022/02/15 08:10:06;0.00;0.00;0.62;0.00;0.00;0.62;3.07;1.70;;;19.90;24.60;;;;;;2249632;61;20384;-61
2022/02/15 08:13:01;0.00;0.00;0.62;0.00;0.00;0.62;4.37;2.10;;;19.80;24.60;;;;;;2249908;61;20376;-60
2022/02/15 08:15:48;0.00;0.00;0.62;0.00;0.00;0.62;2.50;1.93;;;19.90;24.60;;;;;;2249429;61;20409;-61
2022/02/15 08:18:35;0.00;0.00;0.62;0.00;0.00;0.62;2.53;1.80;;;19.90;24.60;;;;;;2249820;61;20592;-61
2022/02/15 08:21:21;0.00;0.00;0.62;0.00;0.00;0.62;2.63;1.90;;;19.90;24.60;;;;;;2249894;61;20591;-61
2022/02/15 08:24:06;0.00;0.00;0.62;0.00;0.00;0.62;2.63;1.80;;;19.90;24.60;;;;;;2249986;61;20777;-61
2022/02/15 08:26:53;0.00;0.00;0.62;0.00;0.00;0.62;2.90;2.37;;;19.90;24.60;;;;;;2250239;61;20396;-61
2022/02/15 08:29:37;0.00;0.00;0.62;0.00;0.00;0.62;3.17;2.10;;;19.90;24.60;;;;;;2249694;61;20504;-61
2022/02/15 08:32:22;0.00;0.00;0.62;0.00;0.00;0.62;2.27;1.90;;;19.90;24.60;;;;;;2249773;61;20364;-61
2022/02/15 08:35:07;0.00;0.00;0.62;0.00;0.00;0.62;2.97;2.03;;;19.80;24.50;;;;;;2249857;61;20391;-61
2022/02/15 08:37:52;0.00;0.00;0.62;0.00;0.00;0.62;3.40;2.23;;;19.80;24.50;;;;;;2249342;61;20768;-61
2022/02/15 08:40:38;0.00;0.00;0.62;0.00;0.00;0.62;2.40;1.73;;;19.80;24.50;;;;;;2249788;61;20697;-60
2022/02/15 08:43:24;0.00;0.00;0.62;0.00;0.00;0.62;2.37;1.70;;;19.80;24.50;;;;;;2249866;61;20361;-61
2022/02/15 08:46:09;0.00;0.00;0.62;0.00;0.00;0.62;2.40;1.60;;;19.80;24.60;;;;;;2249765;61;20745;-62
2022/02/15 08:48:55;0.00;0.00;0.62;0.00;0.00;0.62;2.97;2.03;;;19.80;24.60;;;;;;2249506;61;20428;-61
2022/02/15 08:51:39;0.00;0.00;0.62;0.00;0.00;0.62;1.90;1.70;;;19.80;24.60;;;;;;2249565;61;20384;-61
2022/02/15 08:54:25;0.00;0.00;0.62;0.00;0.00;0.62;1.63;1.20;;;19.80;24.60;;;;;;2249502;61;20408;-60
2022/02/15 08:57:11;0.00;0.00;0.62;0.00;0.00;0.62;2.97;2.00;;;19.80;24.60;;;;;;2249765;61;20416;-60
2022/02/15 08:59:57;0.00;0.00;0.62;0.00;0.00;0.62;3.30;1.70;;;19.80;24.60;;;;;;2249625;61;20701;-61
2022/02/15 09:02:41;0.00;0.00;0.62;0.00;0.00;0.62;3.30;2.30;;;19.80;24.60;;;;;;2249628;61;20380;-60
2022/02/15 09:05:26;0.00;0.00;0.62;0.00;0.00;0.62;2.23;1.67;;;19.80;24.60;;;;;;2249809;61;20810;-60
2022/02/15 09:08:10;0.00;0.00;0.62;0.00;0.00;0.62;3.77;1.90;;;19.80;24.60;;;;;;2249551;61;20395;-61
2022/02/15 09:10:55;0.00;0.00;0.62;0.00;0.00;0.62;3.37;2.10;;;19.80;24.60;;;;;;2249552;61;20724;-61
2022/02/15 09:13:40;0.00;0.00;0.62;0.00;0.00;0.62;2.20;1.80;;;19.80;24.60;;;;;;2249609;61;20394;-61
2022/02/15 09:16:25;0.00;0.00;0.62;0.00;0.00;0.62;2.10;1.83;;;19.80;24.60;;;;;;2249334;61;20365;-61
2022/02/15 09:19:10;0.00;0.00;0.62;0.00;0.00;0.62;3.17;2.07;;;19.80;24.60;;;;;;2249564;61;20768;-61
2022/02/15 09:21:55;0.00;0.00;0.62;0.00;0.00;0.62;2.37;2.17;;;19.80;24.60;;;;;;2249485;61;20744;-61
2022/02/15 09:24:40;0.00;0.00;0.62;0.00;0.00;0.62;4.83;2.10;;;19.80;24.60;;;;;;2249628;61;20352;-61
2022/02/15 09:27:27;0.00;0.00;0.62;0.00;0.00;0.62;6.00;2.07;;;19.80;24.60;;;;;;2249733;61;20405;-62
2022/02/15 09:30:12;0.00;0.00;0.62;0.00;0.00;0.62;2.90;2.37;;;19.80;24.60;;;;;;2249460;61;20794;-61
2022/02/15 09:32:58;0.00;0.00;0.62;0.00;0.00;0.62;3.27;2.27;;;19.80;24.70;;;;;;2249570;61;20408;-61
2022/02/15 09:35:42;0.00;0.00;0.62;0.00;0.00;0.62;3.43;2.40;;;19.80;24.70;;;;;;2249545;61;20364;-61
2022/02/15 09:38:27;0.00;0.00;0.62;0.00;0.00;0.62;3.53;3.03;;;19.80;24.70;;;;;;2249166;61;20752;-61
2022/02/15 09:41:12;0.00;0.00;0.62;0.00;0.00;0.62;5.43;2.50;;;19.80;24.60;;;;;;2249627;61;20405;-61
2022/02/15 09:43:57;0.00;0.00;0.62;0.00;0.00;0.62;2.50;2.00;;;19.80;24.60;;;;;;2249483;61;20393;-61
2022/02/15 09:46:44;0.00;0.00;0.62;0.00;0.00;0.62;2.43;1.77;;;19.80;24.60;;;;;;2249351;61;20459;-61
2022/02/15 09:49:50;0.00;0.00;0.62;0.00;0.00;0.62;2.70;2.27;;;19.80;24.70;;;;;;2249798;61;20380;-61
2022/02/15 09:52:35;0.00;0.00;0.62;0.00;0.00;0.62;2.80;2.10;;;19.70;24.60;;;;;;2249231;61;20360;-61
2022/02/15 09:55:20;0.00;0.00;0.62;0.00;0.00;0.62;3.97;2.30;;;19.80;24.70;;;;;;2249635;61;20364;-61
2022/02/15 09:58:05;0.00;0.00;0.62;0.00;0.00;0.62;2.67;2.20;;;19.80;24.70;;;;;;2249406;61;20364;-61
2022/02/15 10:00:50;0.00;0.00;0.62;0.00;0.00;0.62;3.93;2.40;;;19.80;24.70;;;;;;2249203;61;20364;-61
2022/02/15 10:03:34;0.00;0.00;0.62;0.00;0.00;0.62;2.97;2.63;;;19.80;24.70;;;;;;2249725;61;20444;-61
2022/02/15 10:06:27;0.00;0.00;0.62;0.00;0.00;0.62;2.70;1.80;;;19.80;24.70;;;;;;2249356;61;20436;-62
2022/02/15 10:09:11;0.00;0.00;0.62;0.00;0.00;0.62;2.53;2.30;;;19.80;24.70;;;;;;2249627;61;20472;-60
2022/02/15 10:12:07;0.00;0.00;0.62;0.00;0.00;0.62;2.60;2.23;;;19.80;24.70;;;;;;2249689;61;20365;-60
2022/02/15 10:14:36;0.00;0.00;0.62;0.00;0.00;0.62;3.30;2.97;;;19.80;24.70;;;;;;2249220;61;20349;-61
2022/02/15 10:17:05;0.00;0.00;0.62;0.00;0.00;0.62;3.23;2.30;;;19.80;24.70;;;;;;2249426;61;20349;-60
2022/02/15 10:19:31;0.00;0.00;0.62;0.00;0.00;0.62;2.57;2.37;;;19.80;24.70;;;;;;2249608;61;20381;-60
2022/02/15 10:22:03;0.00;0.00;0.62;0.00;0.00;0.62;3.10;2.47;;;19.70;24.60;;;;;;2249193;61;20349;-60
2022/02/15 10:24:31;0.00;0.00;0.62;0.00;0.00;0.62;3.10;2.80;;;19.70;24.60;;;;;;2249556;61;20349;-60
2022/02/15 10:26:59;0.00;0.00;0.62;0.00;0.00;0.62;2.87;2.60;;;19.70;24.60;;;;;;2249551;61;20603;-61
2022/02/15 10:29:28;0.00;0.00;0.62;0.00;0.00;0.62;3.10;2.80;;;19.70;24.60;;;;;;2249376;61;20771;-61
2022/02/15 10:31:56;0.00;0.00;0.62;0.00;0.00;0.62;4.60;2.83;;;19.70;24.60;;;;;;2249423;61;20361;-62
2022/02/15 10:34:22;0.00;0.00;0.62;0.00;0.00;0.62;3.37;3.07;;;19.70;24.60;;;;;;2249485;61;20356;-60
2022/02/15 10:37:06;0.00;0.00;0.62;0.00;0.00;0.62;3.10;2.80;;;19.70;24.60;;;;;;2249290;61;20349;-60
2022/02/15 10:39:54;0.00;0.00;0.62;0.00;0.00;0.62;3.03;2.73;;;19.70;24.60;;;;;;2249841;61;20392;-61
2022/02/15 10:42:38;0.00;0.00;0.62;0.00;0.00;0.62;4.20;2.77;;;19.70;24.60;;;;;;2249285;61;20401;-62
2022/02/15 10:45:27;0.00;0.00;0.62;0.00;0.00;0.62;3.30;3.00;;;19.70;24.60;;;;;;2249261;61;20388;-61
2022/02/15 10:48:11;0.00;0.00;0.62;0.00;0.00;0.62;3.00;2.70;;;19.60;24.60;;;;;;2249485;61;20372;-61
2022/02/15 10:50:56;0.00;0.00;0.62;0.00;0.00;0.62;2.33;1.93;;;19.60;24.60;;;;;;2249017;61;20360;-60
2022/02/15 10:53:43;0.00;0.00;0.62;0.00;0.00;0.62;2.40;1.70;;;19.60;24.60;;;;;;2249422;61;20373;-62
2022/02/15 10:56:32;0.00;0.00;0.62;0.00;0.00;0.62;4.17;2.20;;;19.60;24.70;;;;;;2249514;61;20368;-61
2022/02/15 10:59:19;0.00;0.00;0.62;0.00;0.00;0.62;3.23;1.70;;;19.60;24.70;;;;;;2249369;61;20423;-61
2022/02/15 11:02:04;0.00;0.00;0.62;0.00;0.00;0.62;2.60;1.90;;;19.60;24.70;;;;;;2249819;61;20360;-61